sensor_id;sensor_type;location;lat;lon;timestamp;temperature;humidity
1578;DHT22;57623;53.608;10.004;2023-05-20T00:01:01;11.10;99.90
1578;DHT22;57623;53.608;10.004;2023-05-20T00:03:29;11.10;99.90
1578;DHT22;57623;53.608;10.004;2023-05-20T00:05:57;11.10;99.90
1578;DHT22;57623;53.608;10.004;2023-05-20T00:08:25;11.00;99.90
1578;DHT22;57623;53.608;10.004;2023-05-20T00:10:53;11.00;99.90
1578;DHT22;57623;53.608;10.004;2023-05-20T00:13:21;11.00;99.90
1578;DHT22;57623;53.608;10.004;2023-05-20T00:15:51;11.00;99.90
1578;DHT22;57623;53.608;10.004;2023-05-20T00:18:20;10.90;99.90
1578;DHT22;57623;53.608;10.004;2023-05-20T00:20:48;10.90;99.90
1578;DHT22;57623;53.608;10.004;2023-05-20T00:23:16;10.90;99.90
1578;DHT22;57623;53.608;10.004;2023-05-20T00:25:44;10.90;99.90
1578;DHT22;57623;53.608;10.004;2023-05-20T00:28:12;10.80;99.90
1578;DHT22;57623;53.608;10.004;2023-05-20T00:30:40;10.80;99.90
1578;DHT22;57623;53.608;10.004;2023-05-20T00:33:09;10.80;99.90
1578;DHT22;57623;53.608;10.004;2023-05-20T00:35:38;10.80;99.90
1578;DHT22;57623;53.608;10.004;2023-05-20T00:38:06;10.80;99.90
1578;DHT22;57623;53.608;10.004;2023-05-20T00:40:34;10.80;99.90
1578;DHT22;57623;53.608;10.004;2023-05-20T00:43:02;10.80;99.90
1578;DHT22;57623;53.608;10.004;2023-05-20T00:45:30;10.70;99.90
1578;DHT22;57623;53.608;10.004;2023-05-20T00:47:59;10.70;99.90
1578;DHT22;57623;53.608;10.004;2023-05-20T00:50:30;10.70;99.90
1578;DHT22;57623;53.608;10.004;2023-05-20T00:53:00;10.60;99.90
1578;DHT22;57623;53.608;10.004;2023-05-20T00:55:28;10.60;99.90
1578;DHT22;57623;53.608;10.004;2023-05-20T00:57:56;10.60;99.90
1578;DHT22;57623;53.608;10.004;2023-05-20T01:00:24;10.60;99.90
1578;DHT22;57623;53.608;10.004;2023-05-20T01:02:54;10.60;99.90
1578;DHT22;57623;53.608;10.004;2023-05-20T01:05:22;10.60;99.90
1578;DHT22;57623;53.608;10.004;2023-05-20T01:07:50;10.60;99.90
1578;DHT22;57623;53.608;10.004;2023-05-20T01:10:21;10.60;99.90
1578;DHT22;57623;53.608;10.004;2023-05-20T01:12:53;10.50;99.90
1578;DHT22;57623;53.608;10.004;2023-05-20T01:15:24;10.50;99.90
1578;DHT22;57623;53.608;10.004;2023-05-20T01:17:57;10.50;99.90
1578;DHT22;57623;53.608;10.004;2023-05-20T01:20:28;10.50;99.90
1578;DHT22;57623;53.608;10.004;2023-05-20T01:22:59;10.50;99.90
1578;DHT22;57623;53.608;10.004;2023-05-20T01:25:28;10.40;99.90
1578;DHT22;57623;53.608;10.004;2023-05-20T01:27:56;10.40;99.90
1578;DHT22;57623;53.608;10.004;2023-05-20T01:30:29;10.40;99.90
1578;DHT22;57623;53.608;10.004;2023-05-20T01:33:03;10.30;99.90
1578;DHT22;57623;53.608;10.004;2023-05-20T01:35:33;10.30;99.90
1578;DHT22;57623;53.608;10.004;2023-05-20T01:38:04;10.30;99.90
1578;DHT22;57623;53.608;10.004;2023-05-20T01:40:33;10.30;99.90
1578;DHT22;57623;53.608;10.004;2023-05-20T01:43:02;10.20;99.90
1578;DHT22;57623;53.608;10.004;2023-05-20T01:45:31;10.20;99.90
1578;DHT22;57623;53.608;10.004;2023-05-20T01:48:00;10.20;99.90
1578;DHT22;57623;53.608;10.004;2023-05-20T01:50:29;10.20;99.90
1578;DHT22;57623;53.608;10.004;2023-05-20T01:52:57;10.20;99.90
1578;DHT22;57623;53.608;10.004;2023-05-20T01:55:26;10.20;99.90
1578;DHT22;57623;53.608;10.004;2023-05-20T01:57:54;10.20;99.90
1578;DHT22;57623;53.608;10.004;2023-05-20T02:00:22;10.20;99.90
1578;DHT22;57623;53.608;10.004;2023-05-20T02:02:50;10.10;99.90
1578;DHT22;57623;53.608;10.004;2023-05-20T02:05:19;10.10;99.90
1578;DHT22;57623;53.608;10.004;2023-05-20T02:07:47;10.20;99.90
1578;DHT22;57623;53.608;10.004;2023-05-20T02:10:15;10.10;99.90
1578;DHT22;57623;53.608;10.004;2023-05-20T02:12:44;10.10;99.90
1578;DHT22;57623;53.608;10.004;2023-05-20T02:15:13;10.10;99.90
1578;DHT22;57623;53.608;10.004;2023-05-20T02:17:41;10.10;99.90
1578;DHT22;57623;53.608;10.004;2023-05-20T02:20:10;10.10;99.90
1578;DHT22;57623;53.608;10.004;2023-05-20T02:22:39;10.10;99.90
1578;DHT22;57623;53.608;10.004;2023-05-20T02:25:08;10.10;99.90
1578;DHT22;57623;53.608;10.004;2023-05-20T02:27:36;10.10;99.90
1578;DHT22;57623;53.608;10.004;2023-05-20T02:30:08;10.10;99.90
1578;DHT22;57623;53.608;10.004;2023-05-20T02:32:36;10.10;99.90
1578;DHT22;57623;53.608;10.004;2023-05-20T02:35:05;10.00;99.90
1578;DHT22;57623;53.608;10.004;2023-05-20T02:37:33;10.00;99.90
1578;DHT22;57623;53.608;10.004;2023-05-20T02:40:01;10.00;99.90
1578;DHT22;57623;53.608;10.004;2023-05-20T02:42:30;10.00;99.90
1578;DHT22;57623;53.608;10.004;2023-05-20T02:44:58;9.90;99.90
1578;DHT22;57623;53.608;10.004;2023-05-20T02:47:27;9.90;99.90
1578;DHT22;57623;53.608;10.004;2023-05-20T02:49:56;9.90;99.90
1578;DHT22;57623;53.608;10.004;2023-05-20T02:52:24;9.90;99.90
1578;DHT22;57623;53.608;10.004;2023-05-20T02:54:52;9.90;99.90
1578;DHT22;57623;53.608;10.004;2023-05-20T02:57:20;9.90;99.90
1578;DHT22;57623;53.608;10.004;2023-05-20T02:59:48;9.80;99.90
1578;DHT22;57623;53.608;10.004;2023-05-20T03:02:16;9.80;99.90
1578;DHT22;57623;53.608;10.004;2023-05-20T03:04:45;9.80;99.90
1578;DHT22;57623;53.608;10.004;2023-05-20T03:07:13;9.80;99.90
1578;DHT22;57623;53.608;10.004;2023-05-20T03:09:45;9.80;99.90
1578;DHT22;57623;53.608;10.004;2023-05-20T03:12:13;9.80;99.90
1578;DHT22;57623;53.608;10.004;2023-05-20T03:14:41;9.80;99.90
1578;DHT22;57623;53.608;10.004;2023-05-20T03:17:09;9.80;99.90
1578;DHT22;57623;53.608;10.004;2023-05-20T03:19:38;9.80;99.90
1578;DHT22;57623;53.608;10.004;2023-05-20T03:22:07;9.70;99.90
1578;DHT22;57623;53.608;10.004;2023-05-20T03:24:35;9.70;99.90
1578;DHT22;57623;53.608;10.004;2023-05-20T03:27:04;9.70;99.90
1578;DHT22;57623;53.608;10.004;2023-05-20T03:29:32;9.70;99.90
1578;DHT22;57623;53.608;10.004;2023-05-20T03:32:00;9.70;99.90
1578;DHT22;57623;53.608;10.004;2023-05-20T03:34:28;9.70;99.90
1578;DHT22;57623;53.608;10.004;2023-05-20T03:36:56;9.70;99.90
1578;DHT22;57623;53.608;10.004;2023-05-20T03:39:27;9.70;99.90
1578;DHT22;57623;53.608;10.004;2023-05-20T03:41:55;9.70;99.90
1578;DHT22;57623;53.608;10.004;2023-05-20T03:44:23;9.70;99.90
1578;DHT22;57623;53.608;10.004;2023-05-20T03:46:51;9.70;99.90
1578;DHT22;57623;53.608;10.004;2023-05-20T03:49:19;9.70;99.90
1578;DHT22;57623;53.608;10.004;2023-05-20T03:51:47;9.70;99.90
1578;DHT22;57623;53.608;10.004;2023-05-20T03:54:17;9.70;99.90
1578;DHT22;57623;53.608;10.004;2023-05-20T03:56:46;9.70;99.90
1578;DHT22;57623;53.608;10.004;2023-05-20T03:59:15;9.70;99.90
1578;DHT22;57623;53.608;10.004;2023-05-20T04:01:43;9.70;99.90
1578;DHT22;57623;53.608;10.004;2023-05-20T04:04:11;9.80;99.90
1578;DHT22;57623;53.608;10.004;2023-05-20T04:06:39;9.80;99.90
1578;DHT22;57623;53.608;10.004;2023-05-20T04:09:07;9.80;99.90
1578;DHT22;57623;53.608;10.004;2023-05-20T04:11:35;9.80;99.90
1578;DHT22;57623;53.608;10.004;2023-05-20T04:14:05;9.80;99.90
1578;DHT22;57623;53.608;10.004;2023-05-20T04:16:33;9.90;99.90
1578;DHT22;57623;53.608;10.004;2023-05-20T04:19:03;9.90;99.90
1578;DHT22;57623;53.608;10.004;2023-05-20T04:21:31;9.90;99.90
1578;DHT22;57623;53.608;10.004;2023-05-20T04:23:59;9.90;99.90
1578;DHT22;57623;53.608;10.004;2023-05-20T04:26:27;10.00;99.90
1578;DHT22;57623;53.608;10.004;2023-05-20T04:28:55;10.00;99.90
1578;DHT22;57623;53.608;10.004;2023-05-20T04:31:26;10.10;99.90
1578;DHT22;57623;53.608;10.004;2023-05-20T04:33:54;10.10;99.90
1578;DHT22;57623;53.608;10.004;2023-05-20T04:36:22;10.20;99.90
1578;DHT22;57623;53.608;10.004;2023-05-20T04:38:54;10.20;99.90
1578;DHT22;57623;53.608;10.004;2023-05-20T04:41:22;10.30;99.90
1578;DHT22;57623;53.608;10.004;2023-05-20T04:43:50;10.30;99.90
1578;DHT22;57623;53.608;10.004;2023-05-20T04:46:19;10.30;99.90
1578;DHT22;57623;53.608;10.004;2023-05-20T04:48:48;10.40;99.90
1578;DHT22;57623;53.608;10.004;2023-05-20T04:51:16;10.40;99.90
1578;DHT22;57623;53.608;10.004;2023-05-20T04:53:44;10.40;99.90
1578;DHT22;57623;53.608;10.004;2023-05-20T04:56:12;10.40;99.90
1578;DHT22;57623;53.608;10.004;2023-05-20T04:58:41;10.40;99.90
1578;DHT22;57623;53.608;10.004;2023-05-20T05:01:09;10.50;99.90
1578;DHT22;57623;53.608;10.004;2023-05-20T05:03:37;10.50;99.90
1578;DHT22;57623;53.608;10.004;2023-05-20T05:06:06;10.60;99.90
1578;DHT22;57623;53.608;10.004;2023-05-20T05:08:34;10.60;99.90
1578;DHT22;57623;53.608;10.004;2023-05-20T05:11:04;10.70;99.90
1578;DHT22;57623;53.608;10.004;2023-05-20T05:13:32;10.80;99.90
1578;DHT22;57623;53.608;10.004;2023-05-20T05:16:01;10.80;99.90
1578;DHT22;57623;53.608;10.004;2023-05-20T05:18:29;10.90;99.90
1578;DHT22;57623;53.608;10.004;2023-05-20T05:20:58;11.00;99.90
1578;DHT22;57623;53.608;10.004;2023-05-20T05:23:28;11.00;99.90
1578;DHT22;57623;53.608;10.004;2023-05-20T05:25:57;11.10;99.90
1578;DHT22;57623;53.608;10.004;2023-05-20T05:28:25;11.10;99.90
1578;DHT22;57623;53.608;10.004;2023-05-20T05:30:54;11.20;99.90
1578;DHT22;57623;53.608;10.004;2023-05-20T05:33:22;11.20;99.90
1578;DHT22;57623;53.608;10.004;2023-05-20T05:35:50;11.30;99.90
1578;DHT22;57623;53.608;10.004;2023-05-20T05:38:18;11.30;99.90
1578;DHT22;57623;53.608;10.004;2023-05-20T05:40:48;11.30;99.90
1578;DHT22;57623;53.608;10.004;2023-05-20T05:43:16;11.40;99.90
1578;DHT22;57623;53.608;10.004;2023-05-20T05:45:44;11.40;99.90
1578;DHT22;57623;53.608;10.004;2023-05-20T05:48:12;11.50;99.90
1578;DHT22;57623;53.608;10.004;2023-05-20T05:50:43;11.60;99.90
1578;DHT22;57623;53.608;10.004;2023-05-20T05:53:11;11.70;99.90
1578;DHT22;57623;53.608;10.004;2023-05-20T05:55:39;11.70;99.90
1578;DHT22;57623;53.608;10.004;2023-05-20T05:58:08;11.70;99.90
1578;DHT22;57623;53.608;10.004;2023-05-20T06:00:37;11.80;99.90
1578;DHT22;57623;53.608;10.004;2023-05-20T06:03:05;11.80;99.90
1578;DHT22;57623;53.608;10.004;2023-05-20T06:05:33;11.90;99.90
1578;DHT22;57623;53.608;10.004;2023-05-20T06:08:01;11.90;99.90
1578;DHT22;57623;53.608;10.004;2023-05-20T06:10:29;12.00;99.90
1578;DHT22;57623;53.608;10.004;2023-05-20T06:12:57;12.00;99.90
1578;DHT22;57623;53.608;10.004;2023-05-20T06:15:26;12.00;99.90
1578;DHT22;57623;53.608;10.004;2023-05-20T06:17:54;12.00;99.90
1578;DHT22;57623;53.608;10.004;2023-05-20T06:20:22;12.10;99.90
1578;DHT22;57623;53.608;10.004;2023-05-20T06:22:50;12.10;99.90
1578;DHT22;57623;53.608;10.004;2023-05-20T06:25:18;12.20;99.90
1578;DHT22;57623;53.608;10.004;2023-05-20T06:27:48;12.20;99.90
1578;DHT22;57623;53.608;10.004;2023-05-20T06:30:17;12.20;99.90
1578;DHT22;57623;53.608;10.004;2023-05-20T06:32:46;12.30;99.90
1578;DHT22;57623;53.608;10.004;2023-05-20T06:35:14;12.40;99.90
1578;DHT22;57623;53.608;10.004;2023-05-20T06:37:42;12.40;99.90
1578;DHT22;57623;53.608;10.004;2023-05-20T06:40:11;12.50;99.90
1578;DHT22;57623;53.608;10.004;2023-05-20T06:42:39;12.60;99.90
1578;DHT22;57623;53.608;10.004;2023-05-20T06:45:08;12.60;99.90
1578;DHT22;57623;53.608;10.004;2023-05-20T06:47:36;12.70;99.90
1578;DHT22;57623;53.608;10.004;2023-05-20T06:50:06;12.80;99.90
1578;DHT22;57623;53.608;10.004;2023-05-20T06:52:34;12.80;99.90
1578;DHT22;57623;53.608;10.004;2023-05-20T06:55:03;13.00;99.90
1578;DHT22;57623;53.608;10.004;2023-05-20T06:57:31;13.10;99.90
1578;DHT22;57623;53.608;10.004;2023-05-20T07:00:01;13.20;99.90
1578;DHT22;57623;53.608;10.004;2023-05-20T07:02:29;13.30;99.90
1578;DHT22;57623;53.608;10.004;2023-05-20T07:04:58;13.30;99.90
1578;DHT22;57623;53.608;10.004;2023-05-20T07:07:27;13.40;99.90
1578;DHT22;57623;53.608;10.004;2023-05-20T07:09:55;13.60;99.90
1578;DHT22;57623;53.608;10.004;2023-05-20T07:12:26;13.60;99.90
1578;DHT22;57623;53.608;10.004;2023-05-20T07:14:53;13.70;99.90
1578;DHT22;57623;53.608;10.004;2023-05-20T07:17:23;13.80;99.90
1578;DHT22;57623;53.608;10.004;2023-05-20T07:19:51;13.90;99.90
1578;DHT22;57623;53.608;10.004;2023-05-20T07:22:19;14.00;99.90
1578;DHT22;57623;53.608;10.004;2023-05-20T07:24:48;14.10;99.90
1578;DHT22;57623;53.608;10.004;2023-05-20T07:27:16;14.20;99.90
1578;DHT22;57623;53.608;10.004;2023-05-20T07:29:44;14.30;99.90
1578;DHT22;57623;53.608;10.004;2023-05-20T07:32:12;14.30;99.90
1578;DHT22;57623;53.608;10.004;2023-05-20T07:34:40;14.40;99.90
1578;DHT22;57623;53.608;10.004;2023-05-20T07:37:08;14.50;99.90
1578;DHT22;57623;53.608;10.004;2023-05-20T07:39:38;14.60;99.90
1578;DHT22;57623;53.608;10.004;2023-05-20T07:42:07;14.60;99.90
1578;DHT22;57623;53.608;10.004;2023-05-20T07:44:35;14.70;99.90
1578;DHT22;57623;53.608;10.004;2023-05-20T07:47:04;14.70;99.90
1578;DHT22;57623;53.608;10.004;2023-05-20T07:49:32;14.80;99.90
1578;DHT22;57623;53.608;10.004;2023-05-20T07:52:00;14.80;99.90
1578;DHT22;57623;53.608;10.004;2023-05-20T07:54:28;14.90;99.90
1578;DHT22;57623;53.608;10.004;2023-05-20T07:56:57;14.90;99.90
1578;DHT22;57623;53.608;10.004;2023-05-20T07:59:27;15.00;99.90
1578;DHT22;57623;53.608;10.004;2023-05-20T08:01:55;15.10;99.90
1578;DHT22;57623;53.608;10.004;2023-05-20T08:04:23;15.20;99.90
1578;DHT22;57623;53.608;10.004;2023-05-20T08:06:52;15.20;99.90
1578;DHT22;57623;53.608;10.004;2023-05-20T08:09:21;15.30;99.90
1578;DHT22;57623;53.608;10.004;2023-05-20T08:11:49;15.40;99.90
1578;DHT22;57623;53.608;10.004;2023-05-20T08:14:17;15.40;99.90
1578;DHT22;57623;53.608;10.004;2023-05-20T08:16:46;15.60;99.90
1578;DHT22;57623;53.608;10.004;2023-05-20T08:19:14;15.60;99.90
1578;DHT22;57623;53.608;10.004;2023-05-20T08:21:42;15.70;99.90
1578;DHT22;57623;53.608;10.004;2023-05-20T08:24:10;15.80;99.90
1578;DHT22;57623;53.608;10.004;2023-05-20T08:26:38;15.90;99.90
1578;DHT22;57623;53.608;10.004;2023-05-20T08:29:06;16.00;99.90
1578;DHT22;57623;53.608;10.004;2023-05-20T08:31:35;16.00;99.90
1578;DHT22;57623;53.608;10.004;2023-05-20T08:34:04;16.20;99.90
1578;DHT22;57623;53.608;10.004;2023-05-20T08:36:32;16.20;99.90
1578;DHT22;57623;53.608;10.004;2023-05-20T08:39:00;16.30;99.90
1578;DHT22;57623;53.608;10.004;2023-05-20T08:41:28;16.40;99.90
1578;DHT22;57623;53.608;10.004;2023-05-20T08:43:58;16.40;99.90
1578;DHT22;57623;53.608;10.004;2023-05-20T08:46:27;16.40;99.90
1578;DHT22;57623;53.608;10.004;2023-05-20T08:48:55;16.40;99.90
1578;DHT22;57623;53.608;10.004;2023-05-20T08:51:26;16.40;99.90
1578;DHT22;57623;53.608;10.004;2023-05-20T08:53:55;16.40;99.90
1578;DHT22;57623;53.608;10.004;2023-05-20T08:56:23;16.40;99.90
1578;DHT22;57623;53.608;10.004;2023-05-20T08:58:55;16.40;99.90
1578;DHT22;57623;53.608;10.004;2023-05-20T09:01:24;16.40;99.90
1578;DHT22;57623;53.608;10.004;2023-05-20T09:03:52;16.50;99.90
1578;DHT22;57623;53.608;10.004;2023-05-20T09:06:20;16.50;99.90
1578;DHT22;57623;53.608;10.004;2023-05-20T09:08:51;16.60;99.90
1578;DHT22;57623;53.608;10.004;2023-05-20T09:11:19;16.80;99.90
1578;DHT22;57623;53.608;10.004;2023-05-20T09:13:49;16.80;99.90
1578;DHT22;57623;53.608;10.004;2023-05-20T09:16:17;16.80;99.90
1578;DHT22;57623;53.608;10.004;2023-05-20T09:18:45;16.90;99.90
1578;DHT22;57623;53.608;10.004;2023-05-20T09:21:14;17.00;99.90
1578;DHT22;57623;53.608;10.004;2023-05-20T09:23:46;17.00;99.90
1578;DHT22;57623;53.608;10.004;2023-05-20T09:26:18;16.90;99.90
1578;DHT22;57623;53.608;10.004;2023-05-20T09:28:46;16.90;99.90
1578;DHT22;57623;53.608;10.004;2023-05-20T09:31:14;16.90;99.90
1578;DHT22;57623;53.608;10.004;2023-05-20T09:33:42;16.90;99.90
1578;DHT22;57623;53.608;10.004;2023-05-20T09:36:12;17.00;99.90
1578;DHT22;57623;53.608;10.004;2023-05-20T09:38:42;17.00;99.90
1578;DHT22;57623;53.608;10.004;2023-05-20T09:41:11;17.10;99.90
1578;DHT22;57623;53.608;10.004;2023-05-20T09:43:42;17.30;99.90
1578;DHT22;57623;53.608;10.004;2023-05-20T09:46:11;17.40;99.90
1578;DHT22;57623;53.608;10.004;2023-05-20T09:48:40;17.40;99.90
1578;DHT22;57623;53.608;10.004;2023-05-20T09:51:09;17.30;99.90
1578;DHT22;57623;53.608;10.004;2023-05-20T09:53:39;17.20;99.90
1578;DHT22;57623;53.608;10.004;2023-05-20T09:56:08;17.20;99.90
1578;DHT22;57623;53.608;10.004;2023-05-20T09:58:42;17.20;99.90
1578;DHT22;57623;53.608;10.004;2023-05-20T10:01:11;17.20;99.90
1578;DHT22;57623;53.608;10.004;2023-05-20T10:03:39;17.10;99.90
1578;DHT22;57623;53.608;10.004;2023-05-20T10:06:23;17.10;99.90
1578;DHT22;57623;53.608;10.004;2023-05-20T10:09:06;17.20;99.90
1578;DHT22;57623;53.608;10.004;2023-05-20T10:11:43;17.20;99.90
1578;DHT22;57623;53.608;10.004;2023-05-20T10:14:30;17.20;99.90
1578;DHT22;57623;53.608;10.004;2023-05-20T10:17:06;17.20;99.90
1578;DHT22;57623;53.608;10.004;2023-05-20T10:19:36;17.10;99.90
1578;DHT22;57623;53.608;10.004;2023-05-20T10:22:05;17.00;99.90
1578;DHT22;57623;53.608;10.004;2023-05-20T10:24:35;17.00;99.90
1578;DHT22;57623;53.608;10.004;2023-05-20T10:27:06;16.90;99.90
1578;DHT22;57623;53.608;10.004;2023-05-20T10:29:43;16.90;99.90
1578;DHT22;57623;53.608;10.004;2023-05-20T10:32:25;16.90;99.90
1578;DHT22;57623;53.608;10.004;2023-05-20T10:34:57;17.00;99.90
1578;DHT22;57623;53.608;10.004;2023-05-20T10:37:27;17.20;99.90
1578;DHT22;57623;53.608;10.004;2023-05-20T10:40:06;17.30;99.90
1578;DHT22;57623;53.608;10.004;2023-05-20T10:42:34;17.50;99.90
1578;DHT22;57623;53.608;10.004;2023-05-20T10:45:05;17.50;99.90
1578;DHT22;57623;53.608;10.004;2023-05-20T10:47:34;17.50;99.90
1578;DHT22;57623;53.608;10.004;2023-05-20T10:50:03;17.40;99.90
1578;DHT22;57623;53.608;10.004;2023-05-20T10:52:32;17.40;99.90
1578;DHT22;57623;53.608;10.004;2023-05-20T10:55:01;17.40;99.90
1578;DHT22;57623;53.608;10.004;2023-05-20T10:57:30;17.50;99.90
1578;DHT22;57623;53.608;10.004;2023-05-20T10:59:59;17.60;99.90
1578;DHT22;57623;53.608;10.004;2023-05-20T11:02:29;17.60;99.90
1578;DHT22;57623;53.608;10.004;2023-05-20T11:04:57;17.60;99.90
1578;DHT22;57623;53.608;10.004;2023-05-20T11:07:26;17.60;99.90
1578;DHT22;57623;53.608;10.004;2023-05-20T11:09:54;17.60;99.90
1578;DHT22;57623;53.608;10.004;2023-05-20T11:12:24;17.70;99.90
1578;DHT22;57623;53.608;10.004;2023-05-20T11:14:52;17.90;99.90
1578;DHT22;57623;53.608;10.004;2023-05-20T11:17:20;17.90;99.90
1578;DHT22;57623;53.608;10.004;2023-05-20T11:19:49;17.90;99.90
1578;DHT22;57623;53.608;10.004;2023-05-20T11:22:18;17.90;99.90
1578;DHT22;57623;53.608;10.004;2023-05-20T11:24:46;17.80;99.90
1578;DHT22;57623;53.608;10.004;2023-05-20T11:27:14;17.70;99.90
1578;DHT22;57623;53.608;10.004;2023-05-20T11:29:42;17.60;99.90
1578;DHT22;57623;53.608;10.004;2023-05-20T11:32:11;17.60;99.90
1578;DHT22;57623;53.608;10.004;2023-05-20T11:34:39;17.50;99.90
1578;DHT22;57623;53.608;10.004;2023-05-20T11:37:10;17.40;99.90
1578;DHT22;57623;53.608;10.004;2023-05-20T11:39:38;17.30;99.90
1578;DHT22;57623;53.608;10.004;2023-05-20T11:42:06;17.40;99.90
1578;DHT22;57623;53.608;10.004;2023-05-20T11:44:34;17.40;99.90
1578;DHT22;57623;53.608;10.004;2023-05-20T11:47:02;17.40;99.90
1578;DHT22;57623;53.608;10.004;2023-05-20T11:49:38;17.40;99.90
1578;DHT22;57623;53.608;10.004;2023-05-20T11:52:09;17.30;99.90
1578;DHT22;57623;53.608;10.004;2023-05-20T11:54:38;17.30;99.90
1578;DHT22;57623;53.608;10.004;2023-05-20T11:57:06;17.30;99.90
1578;DHT22;57623;53.608;10.004;2023-05-20T11:59:34;17.30;99.90
1578;DHT22;57623;53.608;10.004;2023-05-20T12:02:02;17.20;99.90
1578;DHT22;57623;53.608;10.004;2023-05-20T12:04:30;17.20;99.90
1578;DHT22;57623;53.608;10.004;2023-05-20T12:06:58;17.20;99.90
1578;DHT22;57623;53.608;10.004;2023-05-20T12:09:28;17.20;99.90
1578;DHT22;57623;53.608;10.004;2023-05-20T12:11:56;17.20;99.90
1578;DHT22;57623;53.608;10.004;2023-05-20T12:14:25;17.20;99.90
1578;DHT22;57623;53.608;10.004;2023-05-20T12:16:53;17.20;99.90
1578;DHT22;57623;53.608;10.004;2023-05-20T12:19:21;17.20;99.90
1578;DHT22;57623;53.608;10.004;2023-05-20T12:21:49;17.20;99.90
1578;DHT22;57623;53.608;10.004;2023-05-20T12:24:18;17.20;99.90
1578;DHT22;57623;53.608;10.004;2023-05-20T12:26:48;17.10;99.90
1578;DHT22;57623;53.608;10.004;2023-05-20T12:29:16;17.10;99.90
1578;DHT22;57623;53.608;10.004;2023-05-20T12:31:44;17.10;99.90
1578;DHT22;57623;53.608;10.004;2023-05-20T12:34:12;17.00;99.90
1578;DHT22;57623;53.608;10.004;2023-05-20T12:36:40;16.90;99.90
1578;DHT22;57623;53.608;10.004;2023-05-20T12:39:08;16.90;99.90
1578;DHT22;57623;53.608;10.004;2023-05-20T12:41:36;16.90;99.90
1578;DHT22;57623;53.608;10.004;2023-05-20T12:44:06;16.90;99.90
1578;DHT22;57623;53.608;10.004;2023-05-20T12:46:34;16.90;99.90
1578;DHT22;57623;53.608;10.004;2023-05-20T12:49:02;16.90;99.90
1578;DHT22;57623;53.608;10.004;2023-05-20T12:51:30;17.00;99.90
1578;DHT22;57623;53.608;10.004;2023-05-20T12:53:58;17.00;99.90
1578;DHT22;57623;53.608;10.004;2023-05-20T12:56:26;17.00;99.90
1578;DHT22;57623;53.608;10.004;2023-05-20T12:58:54;17.10;99.90
1578;DHT22;57623;53.608;10.004;2023-05-20T13:01:25;17.10;99.90
1578;DHT22;57623;53.608;10.004;2023-05-20T13:03:53;17.00;99.90
1578;DHT22;57623;53.608;10.004;2023-05-20T13:06:21;17.00;99.90
1578;DHT22;57623;53.608;10.004;2023-05-20T13:08:49;17.00;99.90
1578;DHT22;57623;53.608;10.004;2023-05-20T13:11:17;17.00;99.90
1578;DHT22;57623;53.608;10.004;2023-05-20T13:13:45;17.00;99.90
1578;DHT22;57623;53.608;10.004;2023-05-20T13:16:13;17.10;99.90
1578;DHT22;57623;53.608;10.004;2023-05-20T13:18:44;17.10;99.90
1578;DHT22;57623;53.608;10.004;2023-05-20T13:21:12;17.10;99.90
1578;DHT22;57623;53.608;10.004;2023-05-20T13:23:40;17.10;99.90
1578;DHT22;57623;53.608;10.004;2023-05-20T13:26:11;17.10;99.90
1578;DHT22;57623;53.608;10.004;2023-05-20T13:28:39;17.10;99.90
1578;DHT22;57623;53.608;10.004;2023-05-20T13:31:07;17.10;99.90
1578;DHT22;57623;53.608;10.004;2023-05-20T13:33:35;17.20;99.90
1578;DHT22;57623;53.608;10.004;2023-05-20T13:36:05;17.20;99.90
1578;DHT22;57623;53.608;10.004;2023-05-20T13:38:33;17.20;99.90
1578;DHT22;57623;53.608;10.004;2023-05-20T13:41:03;17.10;99.90
1578;DHT22;57623;53.608;10.004;2023-05-20T13:43:31;17.10;99.90
1578;DHT22;57623;53.608;10.004;2023-05-20T13:45:59;17.10;99.90
1578;DHT22;57623;53.608;10.004;2023-05-20T13:48:27;17.10;99.90
1578;DHT22;57623;53.608;10.004;2023-05-20T13:50:55;17.20;99.90
1578;DHT22;57623;53.608;10.004;2023-05-20T13:53:25;17.20;99.90
1578;DHT22;57623;53.608;10.004;2023-05-20T13:55:53;17.10;99.90
1578;DHT22;57623;53.608;10.004;2023-05-20T13:58:21;17.10;99.90
1578;DHT22;57623;53.608;10.004;2023-05-20T14:00:49;17.10;99.90
1578;DHT22;57623;53.608;10.004;2023-05-20T14:03:17;17.10;99.90
1578;DHT22;57623;53.608;10.004;2023-05-20T14:05:45;17.20;99.90
1578;DHT22;57623;53.608;10.004;2023-05-20T14:08:13;17.20;99.90
1578;DHT22;57623;53.608;10.004;2023-05-20T14:10:43;17.30;99.90
1578;DHT22;57623;53.608;10.004;2023-05-20T14:13:11;17.30;99.90
1578;DHT22;57623;53.608;10.004;2023-05-20T14:15:39;17.30;99.90
1578;DHT22;57623;53.608;10.004;2023-05-20T14:18:07;17.30;99.90
1578;DHT22;57623;53.608;10.004;2023-05-20T14:20:35;17.40;99.90
1578;DHT22;57623;53.608;10.004;2023-05-20T14:23:03;17.40;99.90
1578;DHT22;57623;53.608;10.004;2023-05-20T14:25:31;17.40;99.90
1578;DHT22;57623;53.608;10.004;2023-05-20T14:28:00;17.40;99.90
1578;DHT22;57623;53.608;10.004;2023-05-20T14:30:28;17.40;99.90
1578;DHT22;57623;53.608;10.004;2023-05-20T14:32:56;17.30;99.90
1578;DHT22;57623;53.608;10.004;2023-05-20T14:35:24;17.40;99.90
1578;DHT22;57623;53.608;10.004;2023-05-20T14:37:54;17.40;99.90
1578;DHT22;57623;53.608;10.004;2023-05-20T14:40:22;17.40;99.90
1578;DHT22;57623;53.608;10.004;2023-05-20T14:42:53;17.40;99.90
1578;DHT22;57623;53.608;10.004;2023-05-20T14:45:23;17.40;99.90
1578;DHT22;57623;53.608;10.004;2023-05-20T14:47:51;17.40;99.90
1578;DHT22;57623;53.608;10.004;2023-05-20T14:50:19;17.40;99.90
1578;DHT22;57623;53.608;10.004;2023-05-20T14:52:48;17.40;99.90
1578;DHT22;57623;53.608;10.004;2023-05-20T14:55:16;17.40;99.90
1578;DHT22;57623;53.608;10.004;2023-05-20T14:57:44;17.30;99.90
1578;DHT22;57623;53.608;10.004;2023-05-20T15:00:12;17.30;99.90
1578;DHT22;57623;53.608;10.004;2023-05-20T15:02:41;17.20;99.90
1578;DHT22;57623;53.608;10.004;2023-05-20T15:05:09;17.20;99.90
1578;DHT22;57623;53.608;10.004;2023-05-20T15:07:38;17.20;99.90
1578;DHT22;57623;53.608;10.004;2023-05-20T15:10:09;17.10;99.90
1578;DHT22;57623;53.608;10.004;2023-05-20T15:12:40;17.00;99.90
1578;DHT22;57623;53.608;10.004;2023-05-20T15:15:08;17.00;99.90
1578;DHT22;57623;53.608;10.004;2023-05-20T15:17:36;16.90;99.90
1578;DHT22;57623;53.608;10.004;2023-05-20T15:20:07;16.90;99.90
1578;DHT22;57623;53.608;10.004;2023-05-20T15:22:36;16.90;99.90
1578;DHT22;57623;53.608;10.004;2023-05-20T15:25:04;16.90;99.90
1578;DHT22;57623;53.608;10.004;2023-05-20T15:27:32;16.90;99.90
1578;DHT22;57623;53.608;10.004;2023-05-20T15:30:00;16.90;99.90
1578;DHT22;57623;53.608;10.004;2023-05-20T15:32:28;16.80;99.90
1578;DHT22;57623;53.608;10.004;2023-05-20T15:34:56;16.90;99.90
1578;DHT22;57623;53.608;10.004;2023-05-20T15:37:27;16.90;99.90
1578;DHT22;57623;53.608;10.004;2023-05-20T15:39:55;16.90;99.90
1578;DHT22;57623;53.608;10.004;2023-05-20T15:42:23;16.90;99.90